Busby, Montana
Current Conditions -  °F | °C
As of 2:53 PM on Monday 22 Dec 2014 (Local Time) from KSHR Reporting Station
Light Snow Light Snow  
Wind Chill: 20°   Ceiling: 2300
Heat Index: 34°   Visibility: 2mi
Dew Point: 27°   Wind: 31mph
Humidity: 75%   Direction: 310°NW
Pressure: 29.8"   Gusts: 41mph
Location:  45.54°N, 106.96°W
Report Text: KSHR 222153Z AUTO 31027G36KT 2SM -SN BKN023 BKN030 BKN038 01/M03 A2980 RMK AO2 PK WND 31036/2150 SNB46 SLP109 P0000 T00111028
Loading
Personal Weather Stations






























Interactive Weather Map New forecast layout! Learn more

10-Day Weather Forecast

Advertisements
Track Severe Weather on mobile